sensor_id;sensor_type;location;lat;lon;timestamp;pressure;altitude;pressure_sealevel;temperature;humidity
54936;BME280;40838;50.676;7.838;2023-06-26T00:00:21;98223.00;;;17.63;100.00
54936;BME280;40838;50.676;7.838;2023-06-26T00:02:49;98213.09;;;17.78;100.00
54936;BME280;40838;50.676;7.838;2023-06-26T00:05:15;98210.81;;;17.71;100.00
54936;BME280;40838;50.676;7.838;2023-06-26T00:07:42;98213.88;;;17.64;100.00
54936;BME280;40838;50.676;7.838;2023-06-26T00:10:09;98206.56;;;17.70;100.00
54936;BME280;40838;50.676;7.838;2023-06-26T00:12:37;98217.00;;;17.72;100.00
54936;BME280;40838;50.676;7.838;2023-06-26T00:15:06;98208.13;;;17.71;100.00
54936;BME280;40838;50.676;7.838;2023-06-26T00:17:33;98215.38;;;17.57;100.00
54936;BME280;40838;50.676;7.838;2023-06-26T00:20:03;98202.47;;;17.59;100.00
54936;BME280;40838;50.676;7.838;2023-06-26T00:22:32;98198.75;;;17.60;100.00
54936;BME280;40838;50.676;7.838;2023-06-26T00:24:58;98201.41;;;17.60;100.00
54936;BME280;40838;50.676;7.838;2023-06-26T00:27:26;98203.50;;;17.49;100.00
54936;BME280;40838;50.676;7.838;2023-06-26T00:29:55;98203.19;;;17.51;100.00
54936;BME280;40838;50.676;7.838;2023-06-26T00:32:23;98198.41;;;17.61;100.00
54936;BME280;40838;50.676;7.838;2023-06-26T00:34:50;98205.84;;;17.64;100.00
54936;BME280;40838;50.676;7.838;2023-06-26T00:37:17;98198.53;;;17.56;100.00
54936;BME280;40838;50.676;7.838;2023-06-26T00:39:44;98207.16;;;17.53;100.00
54936;BME280;40838;50.676;7.838;2023-06-26T00:42:11;98208.94;;;17.58;100.00
54936;BME280;40838;50.676;7.838;2023-06-26T00:44:38;98207.06;;;17.58;100.00
54936;BME280;40838;50.676;7.838;2023-06-26T00:47:06;98205.06;;;17.36;100.00
54936;BME280;40838;50.676;7.838;2023-06-26T00:49:33;98198.94;;;17.36;100.00
54936;BME280;40838;50.676;7.838;2023-06-26T00:52:00;98197.34;;;17.48;100.00
54936;BME280;40838;50.676;7.838;2023-06-26T00:54:30;98191.59;;;17.55;100.00
54936;BME280;40838;50.676;7.838;2023-06-26T00:56:57;98185.81;;;17.62;100.00
54936;BME280;40838;50.676;7.838;2023-06-26T00:59:25;98183.75;;;17.59;100.00
54936;BME280;40838;50.676;7.838;2023-06-26T01:01:54;98181.00;;;17.50;100.00
54936;BME280;40838;50.676;7.838;2023-06-26T01:04:23;98183.56;;;17.41;100.00
54936;BME280;40838;50.676;7.838;2023-06-26T01:06:54;98188.84;;;17.33;100.00
54936;BME280;40838;50.676;7.838;2023-06-26T01:09:24;98187.53;;;17.30;100.00
54936;BME280;40838;50.676;7.838;2023-06-26T01:11:52;98190.81;;;17.41;100.00
54936;BME280;40838;50.676;7.838;2023-06-26T01:14:21;98180.03;;;17.32;100.00
54936;BME280;40838;50.676;7.838;2023-06-26T01:16:49;98178.63;;;17.35;100.00
54936;BME280;40838;50.676;7.838;2023-06-26T01:19:20;98174.56;;;17.37;100.00
54936;BME280;40838;50.676;7.838;2023-06-26T01:21:56;98178.81;;;17.52;100.00
54936;BME280;40838;50.676;7.838;2023-06-26T01:24:25;98176.47;;;17.37;100.00
54936;BME280;40838;50.676;7.838;2023-06-26T01:27:00;98174.28;;;17.25;100.00
54936;BME280;40838;50.676;7.838;2023-06-26T01:29:30;98175.06;;;17.12;100.00
54936;BME280;40838;50.676;7.838;2023-06-26T01:32:00;98182.19;;;17.30;100.00
54936;BME280;40838;50.676;7.838;2023-06-26T01:34:27;98176.16;;;17.38;100.00
54936;BME280;40838;50.676;7.838;2023-06-26T01:36:58;98179.41;;;17.21;100.00
54936;BME280;40838;50.676;7.838;2023-06-26T01:39:27;98169.44;;;17.13;100.00
54936;BME280;40838;50.676;7.838;2023-06-26T01:41:53;98162.50;;;17.12;100.00
54936;BME280;40838;50.676;7.838;2023-06-26T01:44:30;98169.44;;;16.99;100.00
54936;BME280;40838;50.676;7.838;2023-06-26T01:47:03;98165.75;;;17.09;100.00
54936;BME280;40838;50.676;7.838;2023-06-26T01:49:41;98163.50;;;17.16;100.00
54936;BME280;40838;50.676;7.838;2023-06-26T01:52:16;98164.88;;;17.14;100.00
54936;BME280;40838;50.676;7.838;2023-06-26T01:54:51;98160.03;;;17.02;100.00
54936;BME280;40838;50.676;7.838;2023-06-26T01:57:20;98152.91;;;17.11;100.00
54936;BME280;40838;50.676;7.838;2023-06-26T01:59:50;98158.34;;;17.20;100.00
54936;BME280;40838;50.676;7.838;2023-06-26T02:02:18;98160.03;;;17.02;100.00
54936;BME280;40838;50.676;7.838;2023-06-26T02:04:44;98163.19;;;17.04;100.00
54936;BME280;40838;50.676;7.838;2023-06-26T02:07:14;98156.44;;;17.07;100.00
54936;BME280;40838;50.676;7.838;2023-06-26T02:09:40;98153.78;;;16.93;100.00
54936;BME280;40838;50.676;7.838;2023-06-26T02:12:10;98160.50;;;16.90;100.00
54936;BME280;40838;50.676;7.838;2023-06-26T02:14:38;98158.19;;;16.70;100.00
54936;BME280;40838;50.676;7.838;2023-06-26T02:17:06;98153.19;;;16.63;100.00
54936;BME280;40838;50.676;7.838;2023-06-26T02:19:34;98151.22;;;16.55;100.00
54936;BME280;40838;50.676;7.838;2023-06-26T02:22:01;98143.44;;;16.72;100.00
54936;BME280;40838;50.676;7.838;2023-06-26T02:24:29;98152.59;;;16.85;100.00
54936;BME280;40838;50.676;7.838;2023-06-26T02:26:57;98152.88;;;16.84;100.00
54936;BME280;40838;50.676;7.838;2023-06-26T02:29:25;98158.22;;;16.84;100.00
54936;BME280;40838;50.676;7.838;2023-06-26T02:31:52;98155.53;;;16.84;100.00
54936;BME280;40838;50.676;7.838;2023-06-26T02:34:20;98154.25;;;16.95;100.00
54936;BME280;40838;50.676;7.838;2023-06-26T02:36:49;98156.47;;;16.93;100.00
54936;BME280;40838;50.676;7.838;2023-06-26T02:39:16;98149.00;;;16.76;100.00
54936;BME280;40838;50.676;7.838;2023-06-26T02:41:44;98151.38;;;16.77;100.00
54936;BME280;40838;50.676;7.838;2023-06-26T02:44:11;98150.22;;;16.97;100.00
54936;BME280;40838;50.676;7.838;2023-06-26T02:46:39;98143.88;;;16.93;100.00
54936;BME280;40838;50.676;7.838;2023-06-26T02:49:08;98141.88;;;16.85;100.00
54936;BME280;40838;50.676;7.838;2023-06-26T02:51:36;98143.97;;;17.02;100.00
54936;BME280;40838;50.676;7.838;2023-06-26T02:54:11;98142.75;;;16.80;100.00
54936;BME280;40838;50.676;7.838;2023-06-26T02:56:38;98140.84;;;16.67;100.00
54936;BME280;40838;50.676;7.838;2023-06-26T02:59:05;98144.78;;;16.75;100.00
54936;BME280;40838;50.676;7.838;2023-06-26T03:01:35;98139.13;;;16.76;100.00
54936;BME280;40838;50.676;7.838;2023-06-26T03:04:02;98138.97;;;16.68;100.00
54936;BME280;40838;50.676;7.838;2023-06-26T03:06:30;98144.50;;;16.71;100.00
54936;BME280;40838;50.676;7.838;2023-06-26T03:08:58;98140.78;;;16.72;100.00
54936;BME280;40838;50.676;7.838;2023-06-26T03:11:25;98143.00;;;16.84;100.00
54936;BME280;40838;50.676;7.838;2023-06-26T03:13:52;98147.34;;;16.94;100.00
54936;BME280;40838;50.676;7.838;2023-06-26T03:16:18;98143.88;;;16.47;100.00
54936;BME280;40838;50.676;7.838;2023-06-26T03:18:47;98138.59;;;16.61;100.00
54936;BME280;40838;50.676;7.838;2023-06-26T03:21:14;98139.44;;;16.75;100.00
54936;BME280;40838;50.676;7.838;2023-06-26T03:23:41;98132.97;;;16.76;100.00
54936;BME280;40838;50.676;7.838;2023-06-26T03:26:10;98132.53;;;16.69;100.00
54936;BME280;40838;50.676;7.838;2023-06-26T03:28:39;98132.63;;;16.50;100.00
54936;BME280;40838;50.676;7.838;2023-06-26T03:31:08;98126.59;;;16.72;100.00
54936;BME280;40838;50.676;7.838;2023-06-26T03:33:37;98128.47;;;16.57;100.00
54936;BME280;40838;50.676;7.838;2023-06-26T03:36:04;98135.19;;;16.55;100.00
54936;BME280;40838;50.676;7.838;2023-06-26T03:38:32;98139.53;;;16.51;100.00
54936;BME280;40838;50.676;7.838;2023-06-26T03:40:59;98137.47;;;16.15;100.00
54936;BME280;40838;50.676;7.838;2023-06-26T03:43:30;98139.16;;;16.25;100.00
54936;BME280;40838;50.676;7.838;2023-06-26T03:46:10;98135.97;;;16.09;100.00
54936;BME280;40838;50.676;7.838;2023-06-26T03:48:36;98129.13;;;16.35;100.00
54936;BME280;40838;50.676;7.838;2023-06-26T03:51:04;98132.63;;;16.50;100.00
54936;BME280;40838;50.676;7.838;2023-06-26T03:53:32;98139.91;;;16.44;100.00
54936;BME280;40838;50.676;7.838;2023-06-26T03:55:59;98138.00;;;16.64;100.00
54936;BME280;40838;50.676;7.838;2023-06-26T03:58:27;98137.56;;;16.56;100.00
54936;BME280;40838;50.676;7.838;2023-06-26T04:00:56;98145.72;;;16.32;100.00
54936;BME280;40838;50.676;7.838;2023-06-26T04:03:24;98141.84;;;16.25;100.00
54936;BME280;40838;50.676;7.838;2023-06-26T04:05:51;98149.00;;;16.29;100.00
54936;BME280;40838;50.676;7.838;2023-06-26T04:08:24;98148.47;;;16.27;100.00
54936;BME280;40838;50.676;7.838;2023-06-26T04:10:52;98148.00;;;16.25;100.00
54936;BME280;40838;50.676;7.838;2023-06-26T04:13:19;98145.69;;;16.19;100.00
54936;BME280;40838;50.676;7.838;2023-06-26T04:15:47;98154.34;;;16.10;100.00
54936;BME280;40838;50.676;7.838;2023-06-26T04:18:16;98154.34;;;16.10;100.00
54936;BME280;40838;50.676;7.838;2023-06-26T04:21:04;98169.00;;;16.13;100.00
54936;BME280;40838;50.676;7.838;2023-06-26T04:23:32;98174.22;;;15.85;100.00
54936;BME280;40838;50.676;7.838;2023-06-26T04:25:59;98182.00;;;15.82;100.00
54936;BME280;40838;50.676;7.838;2023-06-26T04:28:26;98179.28;;;15.44;100.00
54936;BME280;40838;50.676;7.838;2023-06-26T04:31:02;98173.88;;;15.49;100.00
54936;BME280;40838;50.676;7.838;2023-06-26T04:33:29;98177.06;;;15.27;100.00
54936;BME280;40838;50.676;7.838;2023-06-26T04:35:57;98175.94;;;15.33;100.00
54936;BME280;40838;50.676;7.838;2023-06-26T04:38:26;98185.59;;;15.29;100.00
54936;BME280;40838;50.676;7.838;2023-06-26T04:40:53;98183.09;;;15.38;100.00
54936;BME280;40838;50.676;7.838;2023-06-26T04:43:21;98181.00;;;15.54;100.00
54936;BME280;40838;50.676;7.838;2023-06-26T04:45:48;98185.72;;;15.62;100.00
54936;BME280;40838;50.676;7.838;2023-06-26T04:48:16;98184.19;;;15.56;100.00
54936;BME280;40838;50.676;7.838;2023-06-26T04:50:43;98188.91;;;15.64;100.00
54936;BME280;40838;50.676;7.838;2023-06-26T04:53:11;98190.84;;;15.77;100.00
54936;BME280;40838;50.676;7.838;2023-06-26T04:55:38;98197.06;;;15.73;100.00
54936;BME280;40838;50.676;7.838;2023-06-26T04:58:05;98194.09;;;15.74;100.00
54936;BME280;40838;50.676;7.838;2023-06-26T05:00:31;98196.00;;;15.50;100.00
54936;BME280;40838;50.676;7.838;2023-06-26T05:03:01;98205.38;;;15.90;100.00
54936;BME280;40838;50.676;7.838;2023-06-26T05:05:29;98201.22;;;15.60;100.00
54936;BME280;40838;50.676;7.838;2023-06-26T05:07:56;98205.22;;;16.19;100.00
54936;BME280;40838;50.676;7.838;2023-06-26T05:10:23;98198.56;;;16.35;100.00
54936;BME280;40838;50.676;7.838;2023-06-26T05:12:49;98203.84;;;16.73;100.00
54936;BME280;40838;50.676;7.838;2023-06-26T05:15:16;98195.16;;;17.09;100.00
54936;BME280;40838;50.676;7.838;2023-06-26T05:17:43;98199.13;;;17.53;100.00
54936;BME280;40838;50.676;7.838;2023-06-26T05:20:11;98200.25;;;19.41;100.00
54936;BME280;40838;50.676;7.838;2023-06-26T05:22:40;98193.28;;;21.05;100.00
54936;BME280;40838;50.676;7.838;2023-06-26T05:25:09;98195.41;;;23.62;92.51
54936;BME280;40838;50.676;7.838;2023-06-26T05:27:39;98200.50;;;24.16;83.94
54936;BME280;40838;50.676;7.838;2023-06-26T05:30:07;98197.56;;;25.60;76.26
54936;BME280;40838;50.676;7.838;2023-06-26T05:32:35;98199.78;;;26.67;69.76
54936;BME280;40838;50.676;7.838;2023-06-26T05:35:03;98202.88;;;27.12;67.37
54936;BME280;40838;50.676;7.838;2023-06-26T05:37:37;98208.72;;;26.29;70.72
54936;BME280;40838;50.676;7.838;2023-06-26T05:40:07;98205.31;;;27.44;65.88
54936;BME280;40838;50.676;7.838;2023-06-26T05:42:37;98204.66;;;27.80;65.90
54936;BME280;40838;50.676;7.838;2023-06-26T05:45:05;98207.06;;;27.86;63.19
54936;BME280;40838;50.676;7.838;2023-06-26T05:47:32;98208.88;;;28.04;60.87
54936;BME280;40838;50.676;7.838;2023-06-26T05:49:59;98214.09;;;27.87;61.13
54936;BME280;40838;50.676;7.838;2023-06-26T05:52:26;98212.16;;;27.87;67.00
54936;BME280;40838;50.676;7.838;2023-06-26T05:54:53;98210.84;;;28.08;67.93
54936;BME280;40838;50.676;7.838;2023-06-26T05:57:26;98217.81;;;27.75;64.86
54936;BME280;40838;50.676;7.838;2023-06-26T05:59:54;98211.22;;;28.06;62.06
54936;BME280;40838;50.676;7.838;2023-06-26T06:02:21;98222.91;;;27.53;62.60
54936;BME280;40838;50.676;7.838;2023-06-26T06:04:48;98215.81;;;27.72;63.79
54936;BME280;40838;50.676;7.838;2023-06-26T06:07:15;98221.31;;;27.75;62.61
54936;BME280;40838;50.676;7.838;2023-06-26T06:09:42;98209.94;;;27.96;62.19
54936;BME280;40838;50.676;7.838;2023-06-26T06:12:10;98220.97;;;27.80;62.37
54936;BME280;40838;50.676;7.838;2023-06-26T06:14:38;98219.63;;;25.11;74.67
54936;BME280;40838;50.676;7.838;2023-06-26T06:17:05;98226.50;;;26.07;74.05
54936;BME280;40838;50.676;7.838;2023-06-26T06:19:31;98231.34;;;25.31;76.28
54936;BME280;40838;50.676;7.838;2023-06-26T06:21:58;98221.28;;;27.22;68.13
54936;BME280;40838;50.676;7.838;2023-06-26T06:24:26;98230.28;;;26.61;74.88
54936;BME280;40838;50.676;7.838;2023-06-26T06:26:53;98224.78;;;26.57;71.79
54936;BME280;40838;50.676;7.838;2023-06-26T06:29:20;98218.53;;;27.72;67.58
54936;BME280;40838;50.676;7.838;2023-06-26T06:31:48;98216.97;;;28.27;65.14
54936;BME280;40838;50.676;7.838;2023-06-26T06:34:15;98211.59;;;29.16;60.11
54936;BME280;40838;50.676;7.838;2023-06-26T06:36:42;98223.56;;;27.70;64.94
54936;BME280;40838;50.676;7.838;2023-06-26T06:39:08;98231.78;;;27.24;66.60
54936;BME280;40838;50.676;7.838;2023-06-26T06:41:35;98221.31;;;27.49;69.53
54936;BME280;40838;50.676;7.838;2023-06-26T06:44:05;98234.31;;;27.89;66.09
54936;BME280;40838;50.676;7.838;2023-06-26T06:46:31;98229.78;;;29.02;62.38
54936;BME280;40838;50.676;7.838;2023-06-26T06:49:00;98227.78;;;28.24;65.99
54936;BME280;40838;50.676;7.838;2023-06-26T06:51:27;98226.41;;;27.80;65.50
54936;BME280;40838;50.676;7.838;2023-06-26T06:53:55;98232.38;;;25.93;78.31
54936;BME280;40838;50.676;7.838;2023-06-26T06:56:22;98238.28;;;26.96;70.31
54936;BME280;40838;50.676;7.838;2023-06-26T06:58:49;98250.34;;;23.29;89.94
54936;BME280;40838;50.676;7.838;2023-06-26T07:01:15;98249.56;;;24.86;81.41
54936;BME280;40838;50.676;7.838;2023-06-26T07:03:42;98252.06;;;21.62;100.00
54936;BME280;40838;50.676;7.838;2023-06-26T07:06:10;98265.16;;;20.78;100.00
54936;BME280;40838;50.676;7.838;2023-06-26T07:08:37;98260.63;;;20.44;100.00
54936;BME280;40838;50.676;7.838;2023-06-26T07:11:04;98261.00;;;23.13;96.18
54936;BME280;40838;50.676;7.838;2023-06-26T07:13:31;98257.94;;;25.92;80.65
54936;BME280;40838;50.676;7.838;2023-06-26T07:15:58;98262.72;;;26.96;74.28
54936;BME280;40838;50.676;7.838;2023-06-26T07:18:25;98265.69;;;26.87;74.12
54936;BME280;40838;50.676;7.838;2023-06-26T07:20:51;98257.81;;;27.51;69.41
54936;BME280;40838;50.676;7.838;2023-06-26T07:23:19;98256.19;;;27.20;70.27
54936;BME280;40838;50.676;7.838;2023-06-26T07:25:46;98258.84;;;26.97;70.77
54936;BME280;40838;50.676;7.838;2023-06-26T07:28:13;98250.81;;;24.33;86.21
54936;BME280;40838;50.676;7.838;2023-06-26T07:30:40;98241.59;;;24.62;86.00
54936;BME280;40838;50.676;7.838;2023-06-26T07:33:07;98264.38;;;26.58;75.84
54936;BME280;40838;50.676;7.838;2023-06-26T07:35:33;98273.41;;;26.27;77.06
54936;BME280;40838;50.676;7.838;2023-06-26T07:38:00;98273.13;;;26.71;75.84
54936;BME280;40838;50.676;7.838;2023-06-26T07:40:31;98283.00;;;26.05;79.63
54936;BME280;40838;50.676;7.838;2023-06-26T07:42:57;98287.41;;;22.95;96.02
54936;BME280;40838;50.676;7.838;2023-06-26T07:45:24;98282.88;;;24.46;86.25
54936;BME280;40838;50.676;7.838;2023-06-26T07:48:05;98272.59;;;25.40;84.10
54936;BME280;40838;50.676;7.838;2023-06-26T07:50:34;98254.81;;;26.10;80.46
54936;BME280;40838;50.676;7.838;2023-06-26T07:53:01;98259.16;;;26.50;76.86
54936;BME280;40838;50.676;7.838;2023-06-26T07:55:28;98250.63;;;26.12;80.67
54936;BME280;40838;50.676;7.838;2023-06-26T07:57:57;98262.16;;;25.74;79.99
54936;BME280;40838;50.676;7.838;2023-06-26T08:00:24;98254.09;;;25.77;81.94
54936;BME280;40838;50.676;7.838;2023-06-26T08:02:52;98262.47;;;26.23;78.76
54936;BME280;40838;50.676;7.838;2023-06-26T08:05:19;98262.25;;;24.82;85.37
54936;BME280;40838;50.676;7.838;2023-06-26T08:07:47;98277.59;;;23.48;92.96
54936;BME280;40838;50.676;7.838;2023-06-26T08:10:14;98283.53;;;23.17;96.70
54936;BME280;40838;50.676;7.838;2023-06-26T08:12:42;98291.38;;;21.93;100.00
54936;BME280;40838;50.676;7.838;2023-06-26T08:15:23;98305.81;;;21.03;100.00
54936;BME280;40838;50.676;7.838;2023-06-26T08:17:50;98299.66;;;20.33;100.00
54936;BME280;40838;50.676;7.838;2023-06-26T08:20:17;98302.59;;;20.05;100.00
54936;BME280;40838;50.676;7.838;2023-06-26T08:22:45;98301.16;;;19.90;100.00
54936;BME280;40838;50.676;7.838;2023-06-26T08:25:13;98303.16;;;19.76;100.00
54936;BME280;40838;50.676;7.838;2023-06-26T08:27:40;98298.28;;;19.78;100.00
54936;BME280;40838;50.676;7.838;2023-06-26T08:30:07;98286.19;;;20.07;100.00
54936;BME280;40838;50.676;7.838;2023-06-26T08:32:35;98294.91;;;20.73;100.00
54936;BME280;40838;50.676;7.838;2023-06-26T08:35:02;98300.44;;;22.93;100.00
54936;BME280;40838;50.676;7.838;2023-06-26T08:37:29;98298.06;;;23.37;99.77
54936;BME280;40838;50.676;7.838;2023-06-26T08:39:58;98300.66;;;24.60;94.60
54936;BME280;40838;50.676;7.838;2023-06-26T08:42:25;98300.34;;;23.96;96.46
54936;BME280;40838;50.676;7.838;2023-06-26T08:44:54;98308.84;;;24.23;96.32
54936;BME280;40838;50.676;7.838;2023-06-26T08:47:21;98301.22;;;25.09;91.43
54936;BME280;40838;50.676;7.838;2023-06-26T08:49:56;98305.63;;;25.62;86.36
54936;BME280;40838;50.676;7.838;2023-06-26T08:52:28;98304.78;;;24.98;89.76
54936;BME280;40838;50.676;7.838;2023-06-26T08:54:58;98313.84;;;25.33;88.21
54936;BME280;40838;50.676;7.838;2023-06-26T08:57:26;98300.00;;;24.38;92.16
54936;BME280;40838;50.676;7.838;2023-06-26T08:59:53;98312.50;;;24.02;95.39
54936;BME280;40838;50.676;7.838;2023-06-26T09:02:20;98315.84;;;24.12;93.86
54936;BME280;40838;50.676;7.838;2023-06-26T09:04:49;98323.09;;;24.60;91.95
54936;BME280;40838;50.676;7.838;2023-06-26T09:07:16;98322.94;;;24.29;92.26
54936;BME280;40838;50.676;7.838;2023-06-26T09:09:46;98335.00;;;24.72;92.12
54936;BME280;40838;50.676;7.838;2023-06-26T09:12:13;98336.03;;;25.23;90.72
54936;BME280;40838;50.676;7.838;2023-06-26T09:14:41;98330.44;;;25.48;86.94
54936;BME280;40838;50.676;7.838;2023-06-26T09:17:07;98336.38;;;24.94;89.98
54936;BME280;40838;50.676;7.838;2023-06-26T09:19:37;98328.34;;;25.25;90.20
54936;BME280;40838;50.676;7.838;2023-06-26T09:22:11;98319.13;;;25.14;88.03
54936;BME280;40838;50.676;7.838;2023-06-26T09:24:38;98329.34;;;24.77;86.93
54936;BME280;40838;50.676;7.838;2023-06-26T09:27:05;98327.91;;;25.55;86.79
54936;BME280;40838;50.676;7.838;2023-06-26T09:29:32;98338.31;;;25.21;83.27
54936;BME280;40838;50.676;7.838;2023-06-26T09:31:59;98342.25;;;25.87;81.70
54936;BME280;40838;50.676;7.838;2023-06-26T09:34:30;98348.19;;;25.45;84.84
54936;BME280;40838;50.676;7.838;2023-06-26T09:36:57;98344.97;;;24.43;88.74
54936;BME280;40838;50.676;7.838;2023-06-26T09:39:25;98352.31;;;25.11;89.53
54936;BME280;40838;50.676;7.838;2023-06-26T09:41:52;98344.97;;;25.11;86.52
54936;BME280;40838;50.676;7.838;2023-06-26T09:44:22;98349.09;;;24.77;88.86
54936;BME280;40838;50.676;7.838;2023-06-26T09:46:49;98336.47;;;25.73;84.24
54936;BME280;40838;50.676;7.838;2023-06-26T09:49:16;98344.19;;;25.11;84.19
54936;BME280;40838;50.676;7.838;2023-06-26T09:51:43;98342.34;;;25.59;80.86
54936;BME280;40838;50.676;7.838;2023-06-26T09:54:10;98344.28;;;25.14;81.12
54936;BME280;40838;50.676;7.838;2023-06-26T09:56:40;98340.94;;;25.18;82.02
54936;BME280;40838;50.676;7.838;2023-06-26T09:59:07;98344.78;;;24.76;83.85
54936;BME280;40838;50.676;7.838;2023-06-26T10:01:40;98354.06;;;23.98;87.01
54936;BME280;40838;50.676;7.838;2023-06-26T10:04:09;98361.44;;;23.40;91.60
54936;BME280;40838;50.676;7.838;2023-06-26T10:06:49;98361.28;;;24.18;85.34
54936;BME280;40838;50.676;7.838;2023-06-26T10:09:17;98358.91;;;23.22;87.16
54936;BME280;40838;50.676;7.838;2023-06-26T10:11:51;98360.19;;;22.83;90.95
54936;BME280;40838;50.676;7.838;2023-06-26T10:14:21;98352.75;;;23.34;89.29
54936;BME280;40838;50.676;7.838;2023-06-26T10:16:50;98349.06;;;22.51;90.95
54936;BME280;40838;50.676;7.838;2023-06-26T10:19:19;98358.03;;;23.30;87.20
54936;BME280;40838;50.676;7.838;2023-06-26T10:21:50;98351.13;;;23.91;86.46
54936;BME280;40838;50.676;7.838;2023-06-26T10:24:19;98352.69;;;24.16;85.52
54936;BME280;40838;50.676;7.838;2023-06-26T10:26:49;98347.78;;;24.59;85.44
54936;BME280;40838;50.676;7.838;2023-06-26T10:29:17;98345.75;;;24.56;84.56
54936;BME280;40838;50.676;7.838;2023-06-26T10:31:50;98352.22;;;24.79;83.07
54936;BME280;40838;50.676;7.838;2023-06-26T10:34:18;98364.88;;;23.98;84.97
54936;BME280;40838;50.676;7.838;2023-06-26T10:36:47;98360.50;;;24.71;80.12
54936;BME280;40838;50.676;7.838;2023-06-26T10:39:17;98356.13;;;24.94;77.82
54936;BME280;40838;50.676;7.838;2023-06-26T10:41:43;98363.81;;;25.08;79.58
54936;BME280;40838;50.676;7.838;2023-06-26T10:44:15;98367.75;;;24.95;78.55
54936;BME280;40838;50.676;7.838;2023-06-26T10:46:50;98361.53;;;24.66;78.17
54936;BME280;40838;50.676;7.838;2023-06-26T10:49:20;98382.06;;;24.55;75.43
54936;BME280;40838;50.676;7.838;2023-06-26T10:51:48;98370.72;;;25.18;78.26
54936;BME280;40838;50.676;7.838;2023-06-26T10:54:16;98369.38;;;24.06;80.60
54936;BME280;40838;50.676;7.838;2023-06-26T10:56:45;98371.47;;;24.37;78.30
54936;BME280;40838;50.676;7.838;2023-06-26T10:59:18;98376.94;;;23.09;82.97
54936;BME280;40838;50.676;7.838;2023-06-26T11:01:46;98386.16;;;24.12;79.61
54936;BME280;40838;50.676;7.838;2023-06-26T11:04:36;98390.00;;;24.11;75.41
54936;BME280;40838;50.676;7.838;2023-06-26T11:07:18;98381.53;;;24.00;73.97
54936;BME280;40838;50.676;7.838;2023-06-26T11:09:59;98376.19;;;24.53;74.16
54936;BME280;40838;50.676;7.838;2023-06-26T11:12:37;98377.22;;;24.48;78.75
54936;BME280;40838;50.676;7.838;2023-06-26T11:15:12;98372.69;;;24.64;75.41
54936;BME280;40838;50.676;7.838;2023-06-26T11:17:40;98378.84;;;24.00;78.84
54936;BME280;40838;50.676;7.838;2023-06-26T11:20:09;98381.28;;;24.54;80.40
54936;BME280;40838;50.676;7.838;2023-06-26T11:22:37;98384.81;;;25.11;78.93
54936;BME280;40838;50.676;7.838;2023-06-26T11:25:05;98383.78;;;24.22;77.04
54936;BME280;40838;50.676;7.838;2023-06-26T11:27:35;98380.88;;;24.80;77.78
54936;BME280;40838;50.676;7.838;2023-06-26T11:30:07;98385.66;;;23.61;80.34
54936;BME280;40838;50.676;7.838;2023-06-26T11:32:36;98387.91;;;24.69;78.86
54936;BME280;40838;50.676;7.838;2023-06-26T11:35:03;98387.72;;;24.25;73.42
54936;BME280;40838;50.676;7.838;2023-06-26T11:37:31;98388.06;;;23.74;73.86
54936;BME280;40838;50.676;7.838;2023-06-26T11:39:58;98396.75;;;23.92;69.24
54936;BME280;40838;50.676;7.838;2023-06-26T11:42:25;98401.69;;;24.02;71.82
54936;BME280;40838;50.676;7.838;2023-06-26T11:44:54;98403.13;;;23.30;74.46
54936;BME280;40838;50.676;7.838;2023-06-26T11:47:21;98402.28;;;23.50;74.02
54936;BME280;40838;50.676;7.838;2023-06-26T11:49:49;98400.72;;;23.95;73.28
54936;BME280;40838;50.676;7.838;2023-06-26T11:52:16;98397.09;;;24.15;65.43
54936;BME280;40838;50.676;7.838;2023-06-26T11:54:43;98402.28;;;23.84;59.40
54936;BME280;40838;50.676;7.838;2023-06-26T11:57:13;98403.28;;;24.28;62.07
54936;BME280;40838;50.676;7.838;2023-06-26T11:59:42;98401.16;;;24.21;64.29
54936;BME280;40838;50.676;7.838;2023-06-26T12:02:13;98408.91;;;24.23;68.04
54936;BME280;40838;50.676;7.838;2023-06-26T12:04:42;98407.88;;;24.40;70.59
54936;BME280;40838;50.676;7.838;2023-06-26T12:07:10;98412.97;;;24.17;70.99
54936;BME280;40838;50.676;7.838;2023-06-26T12:09:38;98413.41;;;23.94;72.13
54936;BME280;40838;50.676;7.838;2023-06-26T12:12:08;98413.75;;;23.93;73.02
54936;BME280;40838;50.676;7.838;2023-06-26T12:14:35;98408.25;;;24.51;75.66
54936;BME280;40838;50.676;7.838;2023-06-26T12:17:08;98416.84;;;23.70;75.63
54936;BME280;40838;50.676;7.838;2023-06-26T12:19:37;98422.44;;;24.23;73.05
54936;BME280;40838;50.676;7.838;2023-06-26T12:22:06;98420.81;;;24.46;66.71
54936;BME280;40838;50.676;7.838;2023-06-26T12:24:36;98429.41;;;24.61;65.79
54936;BME280;40838;50.676;7.838;2023-06-26T12:27:10;98424.63;;;23.72;61.61
54936;BME280;40838;50.676;7.838;2023-06-26T12:29:38;98432.16;;;23.66;62.71
54936;BME280;40838;50.676;7.838;2023-06-26T12:32:08;98430.56;;;23.98;61.22
54936;BME280;40838;50.676;7.838;2023-06-26T12:34:37;98432.38;;;23.61;63.58
54936;BME280;40838;50.676;7.838;2023-06-26T12:37:05;98424.00;;;23.87;64.47
54936;BME280;40838;50.676;7.838;2023-06-26T12:39:48;98427.84;;;24.11;56.94
54936;BME280;40838;50.676;7.838;2023-06-26T12:42:21;98420.50;;;24.23;58.05
54936;BME280;40838;50.676;7.838;2023-06-26T12:44:49;98428.06;;;24.06;61.63
54936;BME280;40838;50.676;7.838;2023-06-26T12:47:18;98424.44;;;22.89;67.75
54936;BME280;40838;50.676;7.838;2023-06-26T12:49:49;98432.59;;;23.02;70.51
54936;BME280;40838;50.676;7.838;2023-06-26T12:52:17;98429.09;;;23.55;66.03
54936;BME280;40838;50.676;7.838;2023-06-26T12:54:51;98423.91;;;23.50;58.86
54936;BME280;40838;50.676;7.838;2023-06-26T12:57:18;98423.63;;;23.76;58.20
54936;BME280;40838;50.676;7.838;2023-06-26T12:59:45;98432.53;;;23.77;60.29
54936;BME280;40838;50.676;7.838;2023-06-26T13:02:11;98433.81;;;23.59;62.13